Terminal Aerodrome Forecast
Issued by NWS Tuscon, AZ

Home | Current Version | Previous Version | Text Only | Print | Product List | Glossary On
Versions: 1 2 3 4 5 6 7 8 9 10 11 12 13 14
000
FTUS45 KTWC 011100
TAFTUS
TAF
KTUS 011127Z 0112/0212 14008KT P6SM SKC
     FM012000 31008KT P6SM SKC
     FM020400 20005KT P6SM SKC
     FM020700 15005KT P6SM SKC=

USA.gov is the U.S. government's official web portal to all federal, state and local government web resources and services.